Bindloss, Canada
Current Conditions -  °F | °C
As of 9:00 AM on Wednesday 28 Jan 2015 (Local Time) from CYXH Reporting Station
Haze Haze  
Wind Chill: -5°   Ceiling: 500
Heat Index: -1°   Visibility: 2.5mi
Dew Point: -1°   Wind: 7mph
Humidity: 100%   Direction: 290°WNW
Pressure: 30.19"   Gusts: NA
Location:  50.88°N, 110.27°W
Report Text: CYXH 281600Z 29006KT 2 1/2SM BR OVC005 M01/M01 A3019 RMK ST8 SLP247
Loading
Personal Weather Stations






























Interactive Weather Map New forecast layout! Learn more

10-Day Weather Forecast

Advertisements
Track Severe Weather on mobile